Terminal Aerodrome Forecast
Issued by NWS Topeka, KS

Home | Current Version | Previous Version | Text Only | Print | Product List | Glossary On
Versions: 1 2 3 4 5 6 7 8 9 10 11 12 13 14 15 16 17 18 19 20 21
000
FTUS43 KTOP 190900 AAA
TAFTOP
TAF AMD
KTOP 190910Z 1909/2006 00000KT 6SM BR OVC009
     FM192000 19004KT 6SM BR SCT008 OVC013=

USA.gov is the U.S. government's official web portal to all federal, state and local government web resources and services.